sensor_id;sensor_type;location;lat;lon;timestamp;temperature;humidity
62424;DHT22;48463;43.604;3.872;2023-06-22T00:00:55;23.90;99.90
62424;DHT22;48463;43.604;3.872;2023-06-22T00:03:22;24.00;99.90
62424;DHT22;48463;43.604;3.872;2023-06-22T00:05:48;24.00;99.90
62424;DHT22;48463;43.604;3.872;2023-06-22T00:08:14;24.00;99.90
62424;DHT22;48463;43.604;3.872;2023-06-22T00:10:41;23.90;99.90
62424;DHT22;48463;43.604;3.872;2023-06-22T00:13:08;23.80;99.90
62424;DHT22;48463;43.604;3.872;2023-06-22T00:15:35;23.80;99.90
62424;DHT22;48463;43.604;3.872;2023-06-22T00:18:01;23.60;99.90
62424;DHT22;48463;43.604;3.872;2023-06-22T00:20:27;23.70;99.90
62424;DHT22;48463;43.604;3.872;2023-06-22T00:22:57;23.70;99.90
62424;DHT22;48463;43.604;3.872;2023-06-22T00:25:23;23.70;99.90
62424;DHT22;48463;43.604;3.872;2023-06-22T00:27:49;23.80;99.90
62424;DHT22;48463;43.604;3.872;2023-06-22T00:30:18;23.80;99.90
62424;DHT22;48463;43.604;3.872;2023-06-22T00:32:45;23.80;99.90
62424;DHT22;48463;43.604;3.872;2023-06-22T00:35:12;23.80;99.90
62424;DHT22;48463;43.604;3.872;2023-06-22T00:37:38;23.80;99.90
62424;DHT22;48463;43.604;3.872;2023-06-22T00:40:10;23.80;99.90
62424;DHT22;48463;43.604;3.872;2023-06-22T00:42:37;23.70;99.90
62424;DHT22;48463;43.604;3.872;2023-06-22T00:45:05;23.70;99.90
62424;DHT22;48463;43.604;3.872;2023-06-22T00:47:30;23.70;99.90
62424;DHT22;48463;43.604;3.872;2023-06-22T00:49:56;23.80;99.90
62424;DHT22;48463;43.604;3.872;2023-06-22T00:52:23;23.70;99.90
62424;DHT22;48463;43.604;3.872;2023-06-22T00:54:55;23.60;99.90
62424;DHT22;48463;43.604;3.872;2023-06-22T00:57:22;23.60;99.90
62424;DHT22;48463;43.604;3.872;2023-06-22T00:59:53;23.60;99.90
62424;DHT22;48463;43.604;3.872;2023-06-22T01:02:19;23.60;99.90
62424;DHT22;48463;43.604;3.872;2023-06-22T01:04:45;23.60;99.90
62424;DHT22;48463;43.604;3.872;2023-06-22T01:07:35;23.70;99.90
62424;DHT22;48463;43.604;3.872;2023-06-22T01:10:14;23.60;99.90
62424;DHT22;48463;43.604;3.872;2023-06-22T01:12:52;23.60;99.90
62424;DHT22;48463;43.604;3.872;2023-06-22T01:15:25;23.60;99.90
62424;DHT22;48463;43.604;3.872;2023-06-22T01:17:53;23.70;99.90
62424;DHT22;48463;43.604;3.872;2023-06-22T01:20:22;23.60;99.90
62424;DHT22;48463;43.604;3.872;2023-06-22T01:23:17;23.70;99.90
62424;DHT22;48463;43.604;3.872;2023-06-22T01:25:48;23.60;99.90
62424;DHT22;48463;43.604;3.872;2023-06-22T01:31:00;23.60;99.90
62424;DHT22;48463;43.604;3.872;2023-06-22T01:33:36;23.50;99.90
62424;DHT22;48463;43.604;3.872;2023-06-22T01:36:03;23.50;99.90
62424;DHT22;48463;43.604;3.872;2023-06-22T01:38:30;23.50;99.90
62424;DHT22;48463;43.604;3.872;2023-06-22T01:40:57;23.50;99.90
62424;DHT22;48463;43.604;3.872;2023-06-22T01:43:28;23.40;99.90
62424;DHT22;48463;43.604;3.872;2023-06-22T01:45:54;23.50;99.90
62424;DHT22;48463;43.604;3.872;2023-06-22T01:48:21;23.50;99.90
62424;DHT22;48463;43.604;3.872;2023-06-22T01:50:48;23.40;99.90
62424;DHT22;48463;43.604;3.872;2023-06-22T01:53:13;23.50;99.90
62424;DHT22;48463;43.604;3.872;2023-06-22T01:55:39;23.50;99.90
62424;DHT22;48463;43.604;3.872;2023-06-22T01:58:05;23.50;99.90
62424;DHT22;48463;43.604;3.872;2023-06-22T02:00:34;23.50;99.90
62424;DHT22;48463;43.604;3.872;2023-06-22T02:03:05;23.40;99.90
62424;DHT22;48463;43.604;3.872;2023-06-22T02:05:50;23.50;99.90
62424;DHT22;48463;43.604;3.872;2023-06-22T02:08:32;23.40;99.90
62424;DHT22;48463;43.604;3.872;2023-06-22T02:11:00;23.50;99.90
62424;DHT22;48463;43.604;3.872;2023-06-22T02:13:27;23.50;99.90
62424;DHT22;48463;43.604;3.872;2023-06-22T02:15:53;23.50;99.90
62424;DHT22;48463;43.604;3.872;2023-06-22T02:18:19;23.50;99.90
62424;DHT22;48463;43.604;3.872;2023-06-22T02:20:46;23.50;99.90
62424;DHT22;48463;43.604;3.872;2023-06-22T02:23:11;23.50;99.90
62424;DHT22;48463;43.604;3.872;2023-06-22T02:25:37;23.40;99.90
62424;DHT22;48463;43.604;3.872;2023-06-22T02:28:04;23.40;99.90
62424;DHT22;48463;43.604;3.872;2023-06-22T02:30:29;23.40;99.90
62424;DHT22;48463;43.604;3.872;2023-06-22T02:32:55;23.40;99.90
62424;DHT22;48463;43.604;3.872;2023-06-22T02:35:29;23.50;99.90
62424;DHT22;48463;43.604;3.872;2023-06-22T02:38:01;23.40;99.90
62424;DHT22;48463;43.604;3.872;2023-06-22T02:40:31;23.60;99.90
62424;DHT22;48463;43.604;3.872;2023-06-22T02:42:58;23.60;99.90
62424;DHT22;48463;43.604;3.872;2023-06-22T02:45:27;23.70;99.90
62424;DHT22;48463;43.604;3.872;2023-06-22T02:47:52;23.70;99.90
62424;DHT22;48463;43.604;3.872;2023-06-22T02:50:18;23.70;99.90
62424;DHT22;48463;43.604;3.872;2023-06-22T02:52:43;23.80;99.90
62424;DHT22;48463;43.604;3.872;2023-06-22T02:55:09;23.80;99.90
62424;DHT22;48463;43.604;3.872;2023-06-22T02:57:35;23.70;99.90
62424;DHT22;48463;43.604;3.872;2023-06-22T03:00:03;23.70;99.90
62424;DHT22;48463;43.604;3.872;2023-06-22T03:02:32;23.80;99.90
62424;DHT22;48463;43.604;3.872;2023-06-22T03:04:57;23.70;99.90
62424;DHT22;48463;43.604;3.872;2023-06-22T03:07:23;23.60;99.90
62424;DHT22;48463;43.604;3.872;2023-06-22T03:09:48;23.60;99.90
62424;DHT22;48463;43.604;3.872;2023-06-22T03:12:14;23.70;99.90
62424;DHT22;48463;43.604;3.872;2023-06-22T03:14:39;23.80;99.90
62424;DHT22;48463;43.604;3.872;2023-06-22T03:17:05;23.70;99.90
62424;DHT22;48463;43.604;3.872;2023-06-22T03:19:31;23.70;99.90
62424;DHT22;48463;43.604;3.872;2023-06-22T03:22:00;23.70;99.90
62424;DHT22;48463;43.604;3.872;2023-06-22T03:24:26;23.80;99.90
62424;DHT22;48463;43.604;3.872;2023-06-22T03:26:55;23.70;99.90
62424;DHT22;48463;43.604;3.872;2023-06-22T03:29:20;23.60;99.90
62424;DHT22;48463;43.604;3.872;2023-06-22T03:31:46;23.60;99.90
62424;DHT22;48463;43.604;3.872;2023-06-22T03:34:11;23.60;99.90
62424;DHT22;48463;43.604;3.872;2023-06-22T03:36:37;23.60;99.90
62424;DHT22;48463;43.604;3.872;2023-06-22T03:39:03;23.60;99.90
62424;DHT22;48463;43.604;3.872;2023-06-22T03:41:28;23.70;99.90
62424;DHT22;48463;43.604;3.872;2023-06-22T03:43:54;23.60;99.90
62424;DHT22;48463;43.604;3.872;2023-06-22T03:46:19;23.70;99.90
62424;DHT22;48463;43.604;3.872;2023-06-22T03:48:45;23.70;99.90
62424;DHT22;48463;43.604;3.872;2023-06-22T03:51:11;23.70;99.90
62424;DHT22;48463;43.604;3.872;2023-06-22T03:53:37;23.60;99.90
62424;DHT22;48463;43.604;3.872;2023-06-22T03:56:02;23.50;99.90
62424;DHT22;48463;43.604;3.872;2023-06-22T03:58:28;23.50;99.90
62424;DHT22;48463;43.604;3.872;2023-06-22T04:00:58;23.60;99.90
62424;DHT22;48463;43.604;3.872;2023-06-22T04:03:25;23.60;99.90
62424;DHT22;48463;43.604;3.872;2023-06-22T04:05:51;23.70;99.90
62424;DHT22;48463;43.604;3.872;2023-06-22T04:08:16;23.70;99.90
62424;DHT22;48463;43.604;3.872;2023-06-22T04:10:42;23.70;99.90
62424;DHT22;48463;43.604;3.872;2023-06-22T04:13:08;23.70;99.90
62424;DHT22;48463;43.604;3.872;2023-06-22T04:15:34;23.70;99.90
62424;DHT22;48463;43.604;3.872;2023-06-22T04:17:59;23.70;99.90
62424;DHT22;48463;43.604;3.872;2023-06-22T04:20:25;23.80;99.90
62424;DHT22;48463;43.604;3.872;2023-06-22T04:22:55;23.80;99.90
62424;DHT22;48463;43.604;3.872;2023-06-22T04:25:21;23.90;99.90
62424;DHT22;48463;43.604;3.872;2023-06-22T04:27:47;23.80;99.90
62424;DHT22;48463;43.604;3.872;2023-06-22T04:30:13;23.80;99.90
62424;DHT22;48463;43.604;3.872;2023-06-22T04:32:42;23.80;99.90
62424;DHT22;48463;43.604;3.872;2023-06-22T04:35:08;23.90;99.90
62424;DHT22;48463;43.604;3.872;2023-06-22T04:37:34;23.90;99.90
62424;DHT22;48463;43.604;3.872;2023-06-22T04:40:00;23.80;99.90
62424;DHT22;48463;43.604;3.872;2023-06-22T04:42:26;23.90;99.90
62424;DHT22;48463;43.604;3.872;2023-06-22T04:44:52;23.90;99.90
62424;DHT22;48463;43.604;3.872;2023-06-22T04:47:18;23.80;99.90
62424;DHT22;48463;43.604;3.872;2023-06-22T04:49:43;23.80;99.90
62424;DHT22;48463;43.604;3.872;2023-06-22T04:52:11;23.80;99.90
62424;DHT22;48463;43.604;3.872;2023-06-22T04:54:39;23.70;99.90
62424;DHT22;48463;43.604;3.872;2023-06-22T04:57:13;23.60;99.90
62424;DHT22;48463;43.604;3.872;2023-06-22T04:59:39;23.60;99.90
62424;DHT22;48463;43.604;3.872;2023-06-22T05:02:07;23.60;99.90
62424;DHT22;48463;43.604;3.872;2023-06-22T05:04:33;23.70;99.90
62424;DHT22;48463;43.604;3.872;2023-06-22T05:06:59;23.70;99.90
62424;DHT22;48463;43.604;3.872;2023-06-22T05:09:28;23.70;99.90
62424;DHT22;48463;43.604;3.872;2023-06-22T05:11:54;23.70;99.90
62424;DHT22;48463;43.604;3.872;2023-06-22T05:14:20;23.70;99.90
62424;DHT22;48463;43.604;3.872;2023-06-22T05:16:46;23.80;99.90
62424;DHT22;48463;43.604;3.872;2023-06-22T05:19:12;23.80;99.90
62424;DHT22;48463;43.604;3.872;2023-06-22T05:21:38;23.70;99.90
62424;DHT22;48463;43.604;3.872;2023-06-22T05:24:04;23.80;99.90
62424;DHT22;48463;43.604;3.872;2023-06-22T05:26:31;23.90;99.90
62424;DHT22;48463;43.604;3.872;2023-06-22T05:28:57;24.00;99.90
62424;DHT22;48463;43.604;3.872;2023-06-22T05:31:23;24.10;99.90
62424;DHT22;48463;43.604;3.872;2023-06-22T05:33:51;24.00;99.90
62424;DHT22;48463;43.604;3.872;2023-06-22T05:36:17;24.10;99.90
62424;DHT22;48463;43.604;3.872;2023-06-22T05:38:45;24.20;99.90
62424;DHT22;48463;43.604;3.872;2023-06-22T05:41:11;24.20;99.90
62424;DHT22;48463;43.604;3.872;2023-06-22T05:43:36;24.20;99.90
62424;DHT22;48463;43.604;3.872;2023-06-22T05:46:03;24.30;99.90
62424;DHT22;48463;43.604;3.872;2023-06-22T05:48:29;24.30;99.90
62424;DHT22;48463;43.604;3.872;2023-06-22T05:50:55;24.20;99.90
62424;DHT22;48463;43.604;3.872;2023-06-22T05:53:20;24.20;99.90
62424;DHT22;48463;43.604;3.872;2023-06-22T05:55:46;24.30;99.90
62424;DHT22;48463;43.604;3.872;2023-06-22T05:58:12;24.40;99.90
62424;DHT22;48463;43.604;3.872;2023-06-22T06:00:39;24.40;99.90
62424;DHT22;48463;43.604;3.872;2023-06-22T06:03:05;24.30;99.90
62424;DHT22;48463;43.604;3.872;2023-06-22T06:05:31;24.40;99.90
62424;DHT22;48463;43.604;3.872;2023-06-22T06:07:58;24.40;99.90
62424;DHT22;48463;43.604;3.872;2023-06-22T06:10:24;24.40;99.90
62424;DHT22;48463;43.604;3.872;2023-06-22T06:12:50;24.30;99.90
62424;DHT22;48463;43.604;3.872;2023-06-22T06:15:19;24.20;99.90
62424;DHT22;48463;43.604;3.872;2023-06-22T06:17:49;24.00;99.90
62424;DHT22;48463;43.604;3.872;2023-06-22T06:20:17;24.10;99.90
62424;DHT22;48463;43.604;3.872;2023-06-22T06:22:43;24.20;99.90
62424;DHT22;48463;43.604;3.872;2023-06-22T06:25:09;24.30;99.90
62424;DHT22;48463;43.604;3.872;2023-06-22T06:27:35;24.30;99.90
62424;DHT22;48463;43.604;3.872;2023-06-22T06:30:01;24.40;99.90
62424;DHT22;48463;43.604;3.872;2023-06-22T06:32:28;24.40;99.90
62424;DHT22;48463;43.604;3.872;2023-06-22T06:34:53;24.40;99.90
62424;DHT22;48463;43.604;3.872;2023-06-22T06:37:19;24.50;99.90
62424;DHT22;48463;43.604;3.872;2023-06-22T06:39:45;24.40;99.90
62424;DHT22;48463;43.604;3.872;2023-06-22T06:42:11;24.50;99.90
62424;DHT22;48463;43.604;3.872;2023-06-22T06:44:36;24.70;99.90
62424;DHT22;48463;43.604;3.872;2023-06-22T06:47:04;24.80;99.90
62424;DHT22;48463;43.604;3.872;2023-06-22T06:49:30;24.90;99.90
62424;DHT22;48463;43.604;3.872;2023-06-22T06:51:56;24.80;99.90
62424;DHT22;48463;43.604;3.872;2023-06-22T06:54:22;24.90;99.90
62424;DHT22;48463;43.604;3.872;2023-06-22T06:56:48;24.90;99.90
62424;DHT22;48463;43.604;3.872;2023-06-22T06:59:14;25.00;99.90
62424;DHT22;48463;43.604;3.872;2023-06-22T07:01:41;25.00;99.90
62424;DHT22;48463;43.604;3.872;2023-06-22T07:04:07;25.10;99.90
62424;DHT22;48463;43.604;3.872;2023-06-22T07:06:33;25.00;99.90
62424;DHT22;48463;43.604;3.872;2023-06-22T07:08:59;25.00;99.90
62424;DHT22;48463;43.604;3.872;2023-06-22T07:11:25;24.90;99.90
62424;DHT22;48463;43.604;3.872;2023-06-22T07:13:52;24.90;99.90
62424;DHT22;48463;43.604;3.872;2023-06-22T07:16:18;24.90;99.90
62424;DHT22;48463;43.604;3.872;2023-06-22T07:18:43;25.00;99.90
62424;DHT22;48463;43.604;3.872;2023-06-22T07:21:09;24.80;99.90
62424;DHT22;48463;43.604;3.872;2023-06-22T07:23:35;24.80;99.90
62424;DHT22;48463;43.604;3.872;2023-06-22T07:26:00;24.70;99.90
62424;DHT22;48463;43.604;3.872;2023-06-22T07:28:31;24.70;99.90
62424;DHT22;48463;43.604;3.872;2023-06-22T07:31:02;24.70;99.90
62424;DHT22;48463;43.604;3.872;2023-06-22T07:33:30;24.90;99.90
62424;DHT22;48463;43.604;3.872;2023-06-22T07:35:56;25.00;99.90
62424;DHT22;48463;43.604;3.872;2023-06-22T07:38:21;25.10;99.90
62424;DHT22;48463;43.604;3.872;2023-06-22T07:40:47;25.20;99.90
62424;DHT22;48463;43.604;3.872;2023-06-22T07:43:13;25.20;99.90
62424;DHT22;48463;43.604;3.872;2023-06-22T07:45:38;25.20;99.90
62424;DHT22;48463;43.604;3.872;2023-06-22T07:48:06;25.50;99.90
62424;DHT22;48463;43.604;3.872;2023-06-22T07:50:32;25.70;99.90
62424;DHT22;48463;43.604;3.872;2023-06-22T07:52:58;25.90;99.90
62424;DHT22;48463;43.604;3.872;2023-06-22T07:55:23;25.80;99.90
62424;DHT22;48463;43.604;3.872;2023-06-22T07:57:49;25.80;99.90
62424;DHT22;48463;43.604;3.872;2023-06-22T08:00:17;25.90;99.90
62424;DHT22;48463;43.604;3.872;2023-06-22T08:02:45;26.00;99.90
62424;DHT22;48463;43.604;3.872;2023-06-22T08:05:11;26.00;99.90
62424;DHT22;48463;43.604;3.872;2023-06-22T08:07:38;26.20;99.90
62424;DHT22;48463;43.604;3.872;2023-06-22T08:10:10;26.50;99.90
62424;DHT22;48463;43.604;3.872;2023-06-22T08:12:36;26.70;99.90
62424;DHT22;48463;43.604;3.872;2023-06-22T08:15:02;26.70;99.90
62424;DHT22;48463;43.604;3.872;2023-06-22T08:17:28;26.70;99.90
62424;DHT22;48463;43.604;3.872;2023-06-22T08:19:54;26.80;99.90
62424;DHT22;48463;43.604;3.872;2023-06-22T08:22:19;26.80;99.90
62424;DHT22;48463;43.604;3.872;2023-06-22T08:24:45;26.60;99.90
62424;DHT22;48463;43.604;3.872;2023-06-22T08:27:11;26.60;99.90
62424;DHT22;48463;43.604;3.872;2023-06-22T08:29:46;26.70;99.90
62424;DHT22;48463;43.604;3.872;2023-06-22T08:32:12;26.50;99.90
62424;DHT22;48463;43.604;3.872;2023-06-22T08:34:38;26.60;99.90
62424;DHT22;48463;43.604;3.872;2023-06-22T08:37:08;27.00;99.90
62424;DHT22;48463;43.604;3.872;2023-06-22T08:39:33;27.10;99.90
62424;DHT22;48463;43.604;3.872;2023-06-22T08:41:59;27.10;99.90
62424;DHT22;48463;43.604;3.872;2023-06-22T08:44:25;27.20;99.90
62424;DHT22;48463;43.604;3.872;2023-06-22T08:46:51;27.30;99.90
62424;DHT22;48463;43.604;3.872;2023-06-22T08:49:16;27.30;99.90
62424;DHT22;48463;43.604;3.872;2023-06-22T08:51:42;27.00;99.90
62424;DHT22;48463;43.604;3.872;2023-06-22T08:54:09;27.10;99.90
62424;DHT22;48463;43.604;3.872;2023-06-22T08:56:35;27.30;99.90
62424;DHT22;48463;43.604;3.872;2023-06-22T08:59:01;27.40;99.90
62424;DHT22;48463;43.604;3.872;2023-06-22T09:01:27;27.20;99.90
62424;DHT22;48463;43.604;3.872;2023-06-22T09:03:53;27.20;99.90
62424;DHT22;48463;43.604;3.872;2023-06-22T09:06:23;27.00;99.90
62424;DHT22;48463;43.604;3.872;2023-06-22T09:08:50;26.80;99.90
62424;DHT22;48463;43.604;3.872;2023-06-22T09:11:16;26.70;99.90
62424;DHT22;48463;43.604;3.872;2023-06-22T09:13:42;26.50;99.90
62424;DHT22;48463;43.604;3.872;2023-06-22T09:16:08;26.50;99.90
62424;DHT22;48463;43.604;3.872;2023-06-22T09:18:36;26.70;99.90
62424;DHT22;48463;43.604;3.872;2023-06-22T09:21:02;26.70;99.90
62424;DHT22;48463;43.604;3.872;2023-06-22T09:23:28;26.60;99.90
62424;DHT22;48463;43.604;3.872;2023-06-22T09:25:54;27.00;99.90
62424;DHT22;48463;43.604;3.872;2023-06-22T09:28:19;26.80;99.90
62424;DHT22;48463;43.604;3.872;2023-06-22T09:30:46;27.30;99.90
62424;DHT22;48463;43.604;3.872;2023-06-22T09:33:11;26.90;99.90
62424;DHT22;48463;43.604;3.872;2023-06-22T09:35:37;26.80;99.90
62424;DHT22;48463;43.604;3.872;2023-06-22T09:38:02;27.00;99.90
62424;DHT22;48463;43.604;3.872;2023-06-22T09:40:28;27.10;99.90
62424;DHT22;48463;43.604;3.872;2023-06-22T09:42:54;27.10;99.90
62424;DHT22;48463;43.604;3.872;2023-06-22T09:45:20;27.10;99.90
62424;DHT22;48463;43.604;3.872;2023-06-22T09:47:48;27.00;99.90
62424;DHT22;48463;43.604;3.872;2023-06-22T09:50:13;27.00;99.90
62424;DHT22;48463;43.604;3.872;2023-06-22T09:52:39;27.00;99.90
62424;DHT22;48463;43.604;3.872;2023-06-22T09:55:05;27.00;99.90
62424;DHT22;48463;43.604;3.872;2023-06-22T09:57:31;27.00;99.90
62424;DHT22;48463;43.604;3.872;2023-06-22T09:59:57;27.10;99.90
62424;DHT22;48463;43.604;3.872;2023-06-22T10:02:23;27.10;99.90
62424;DHT22;48463;43.604;3.872;2023-06-22T10:04:48;27.40;99.90
62424;DHT22;48463;43.604;3.872;2023-06-22T10:07:14;27.50;99.90
62424;DHT22;48463;43.604;3.872;2023-06-22T10:09:40;27.40;99.90
62424;DHT22;48463;43.604;3.872;2023-06-22T10:12:06;27.30;99.90
62424;DHT22;48463;43.604;3.872;2023-06-22T10:14:36;27.50;99.90
62424;DHT22;48463;43.604;3.872;2023-06-22T10:17:02;27.30;99.90
62424;DHT22;48463;43.604;3.872;2023-06-22T10:19:28;27.40;99.90
62424;DHT22;48463;43.604;3.872;2023-06-22T10:21:54;27.60;99.90
62424;DHT22;48463;43.604;3.872;2023-06-22T10:24:20;27.30;99.90
62424;DHT22;48463;43.604;3.872;2023-06-22T10:26:46;27.30;99.90
62424;DHT22;48463;43.604;3.872;2023-06-22T10:29:11;27.50;99.90
62424;DHT22;48463;43.604;3.872;2023-06-22T10:31:37;27.50;99.90
62424;DHT22;48463;43.604;3.872;2023-06-22T10:34:04;27.40;99.90
62424;DHT22;48463;43.604;3.872;2023-06-22T10:36:33;27.00;99.90
62424;DHT22;48463;43.604;3.872;2023-06-22T10:39:00;26.90;99.90
62424;DHT22;48463;43.604;3.872;2023-06-22T10:41:27;26.90;99.90
62424;DHT22;48463;43.604;3.872;2023-06-22T10:43:55;26.80;99.90
62424;DHT22;48463;43.604;3.872;2023-06-22T10:46:21;26.70;99.90
62424;DHT22;48463;43.604;3.872;2023-06-22T10:48:47;26.50;99.90
62424;DHT22;48463;43.604;3.872;2023-06-22T10:51:13;26.40;99.90
62424;DHT22;48463;43.604;3.872;2023-06-22T10:53:38;26.20;99.90
62424;DHT22;48463;43.604;3.872;2023-06-22T10:56:04;24.70;99.90
62424;DHT22;48463;43.604;3.872;2023-06-22T10:58:30;24.40;99.90
62424;DHT22;48463;43.604;3.872;2023-06-22T11:00:56;24.10;99.90
62424;DHT22;48463;43.604;3.872;2023-06-22T11:03:22;23.90;99.90
62424;DHT22;48463;43.604;3.872;2023-06-22T11:05:49;23.70;99.90
62424;DHT22;48463;43.604;3.872;2023-06-22T11:08:14;23.40;99.90
62424;DHT22;48463;43.604;3.872;2023-06-22T11:10:40;23.00;99.90
62424;DHT22;48463;43.604;3.872;2023-06-22T11:13:06;22.60;99.90
62424;DHT22;48463;43.604;3.872;2023-06-22T11:15:35;21.60;99.90
62424;DHT22;48463;43.604;3.872;2023-06-22T11:18:01;21.20;99.90
62424;DHT22;48463;43.604;3.872;2023-06-22T11:20:30;21.20;99.90
62424;DHT22;48463;43.604;3.872;2023-06-22T11:22:55;21.30;99.90
62424;DHT22;48463;43.604;3.872;2023-06-22T11:25:21;21.20;99.90
62424;DHT22;48463;43.604;3.872;2023-06-22T11:27:51;21.30;99.90
62424;DHT22;48463;43.604;3.872;2023-06-22T11:30:20;21.30;99.90
62424;DHT22;48463;43.604;3.872;2023-06-22T11:32:46;21.40;99.90
62424;DHT22;48463;43.604;3.872;2023-06-22T11:35:13;21.30;99.90
62424;DHT22;48463;43.604;3.872;2023-06-22T11:37:41;21.40;99.90
62424;DHT22;48463;43.604;3.872;2023-06-22T11:40:08;21.50;99.90
62424;DHT22;48463;43.604;3.872;2023-06-22T11:42:34;21.60;99.90
62424;DHT22;48463;43.604;3.872;2023-06-22T11:45:01;21.70;99.90
62424;DHT22;48463;43.604;3.872;2023-06-22T11:47:27;21.50;99.90
62424;DHT22;48463;43.604;3.872;2023-06-22T11:49:53;21.70;99.90
62424;DHT22;48463;43.604;3.872;2023-06-22T11:52:19;21.70;99.90
62424;DHT22;48463;43.604;3.872;2023-06-22T11:54:45;21.80;99.90
62424;DHT22;48463;43.604;3.872;2023-06-22T11:57:15;22.00;99.90
62424;DHT22;48463;43.604;3.872;2023-06-22T11:59:41;22.10;99.90
62424;DHT22;48463;43.604;3.872;2023-06-22T12:02:06;22.30;99.90
62424;DHT22;48463;43.604;3.872;2023-06-22T12:04:32;22.60;99.90
62424;DHT22;48463;43.604;3.872;2023-06-22T12:06:58;22.90;99.90
62424;DHT22;48463;43.604;3.872;2023-06-22T12:09:24;23.50;99.90
62424;DHT22;48463;43.604;3.872;2023-06-22T12:11:49;23.90;99.90
62424;DHT22;48463;43.604;3.872;2023-06-22T12:14:15;24.00;99.90
62424;DHT22;48463;43.604;3.872;2023-06-22T12:16:41;24.00;99.90
62424;DHT22;48463;43.604;3.872;2023-06-22T12:19:09;23.90;99.90
62424;DHT22;48463;43.604;3.872;2023-06-22T12:21:35;23.80;99.90
62424;DHT22;48463;43.604;3.872;2023-06-22T12:24:00;23.70;99.90
62424;DHT22;48463;43.604;3.872;2023-06-22T12:26:26;23.80;99.90
62424;DHT22;48463;43.604;3.872;2023-06-22T12:28:52;23.80;99.90
62424;DHT22;48463;43.604;3.872;2023-06-22T12:31:17;23.80;99.90
62424;DHT22;48463;43.604;3.872;2023-06-22T12:33:43;24.10;99.90
62424;DHT22;48463;43.604;3.872;2023-06-22T12:36:08;24.00;99.90
62424;DHT22;48463;43.604;3.872;2023-06-22T12:38:34;24.30;99.90
62424;DHT22;48463;43.604;3.872;2023-06-22T12:41:00;23.90;99.90
62424;DHT22;48463;43.604;3.872;2023-06-22T12:43:50;23.80;99.90
62424;DHT22;48463;43.604;3.872;2023-06-22T12:46:17;24.10;99.90
62424;DHT22;48463;43.604;3.872;2023-06-22T12:48:43;24.40;99.90
62424;DHT22;48463;43.604;3.872;2023-06-22T12:55:08;24.30;99.90
62424;DHT22;48463;43.604;3.872;2023-06-22T12:57:33;24.30;99.90
62424;DHT22;48463;43.604;3.872;2023-06-22T12:59:59;24.20;99.90
62424;DHT22;48463;43.604;3.872;2023-06-22T13:02:26;24.70;99.90
62424;DHT22;48463;43.604;3.872;2023-06-22T13:04:52;24.80;99.90
62424;DHT22;48463;43.604;3.872;2023-06-22T13:07:18;24.60;99.90
62424;DHT22;48463;43.604;3.872;2023-06-22T13:09:43;24.20;99.90
62424;DHT22;48463;43.604;3.872;2023-06-22T13:12:11;24.50;99.90
62424;DHT22;48463;43.604;3.872;2023-06-22T13:14:37;24.60;99.90
62424;DHT22;48463;43.604;3.872;2023-06-22T13:17:03;25.00;99.90
62424;DHT22;48463;43.604;3.872;2023-06-22T13:19:28;25.10;99.90
62424;DHT22;48463;43.604;3.872;2023-06-22T13:21:58;25.10;99.90
62424;DHT22;48463;43.604;3.872;2023-06-22T13:24:23;25.20;99.90
62424;DHT22;48463;43.604;3.872;2023-06-22T13:26:55;25.20;99.90
62424;DHT22;48463;43.604;3.872;2023-06-22T13:29:21;25.10;99.90
62424;DHT22;48463;43.604;3.872;2023-06-22T13:31:50;24.90;99.90
62424;DHT22;48463;43.604;3.872;2023-06-22T13:34:36;24.80;99.90
62424;DHT22;48463;43.604;3.872;2023-06-22T13:37:02;24.70;99.90
62424;DHT22;48463;43.604;3.872;2023-06-22T13:39:27;24.60;99.90
62424;DHT22;48463;43.604;3.872;2023-06-22T13:41:53;24.60;99.90
62424;DHT22;48463;43.604;3.872;2023-06-22T13:44:19;24.60;99.90
62424;DHT22;48463;43.604;3.872;2023-06-22T13:46:45;24.60;99.90
62424;DHT22;48463;43.604;3.872;2023-06-22T13:49:10;24.80;99.90
62424;DHT22;48463;43.604;3.872;2023-06-22T13:51:36;24.80;99.90
62424;DHT22;48463;43.604;3.872;2023-06-22T13:54:02;25.00;99.90
62424;DHT22;48463;43.604;3.872;2023-06-22T13:56:27;25.00;99.90
62424;DHT22;48463;43.604;3.872;2023-06-22T13:58:53;25.30;99.90
62424;DHT22;48463;43.604;3.872;2023-06-22T14:01:19;25.60;99.90
62424;DHT22;48463;43.604;3.872;2023-06-22T14:03:48;25.80;99.90
62424;DHT22;48463;43.604;3.872;2023-06-22T14:06:13;26.20;99.90
62424;DHT22;48463;43.604;3.872;2023-06-22T14:08:39;26.70;99.90
62424;DHT22;48463;43.604;3.872;2023-06-22T14:11:12;27.10;99.90
62424;DHT22;48463;43.604;3.872;2023-06-22T14:13:39;27.40;99.90
62424;DHT22;48463;43.604;3.872;2023-06-22T14:16:07;27.50;99.90
62424;DHT22;48463;43.604;3.872;2023-06-22T14:18:33;27.60;99.90
62424;DHT22;48463;43.604;3.872;2023-06-22T14:20:59;27.60;99.90
62424;DHT22;48463;43.604;3.872;2023-06-22T14:23:26;27.50;99.90
62424;DHT22;48463;43.604;3.872;2023-06-22T14:25:52;27.90;99.90
62424;DHT22;48463;43.604;3.872;2023-06-22T14:28:18;28.10;99.90
62424;DHT22;48463;43.604;3.872;2023-06-22T14:30:44;28.30;99.90
62424;DHT22;48463;43.604;3.872;2023-06-22T14:33:10;28.30;99.90
62424;DHT22;48463;43.604;3.872;2023-06-22T14:35:36;28.20;99.90
62424;DHT22;48463;43.604;3.872;2023-06-22T14:38:01;28.10;99.90
62424;DHT22;48463;43.604;3.872;2023-06-22T14:40:27;28.40;99.90
62424;DHT22;48463;43.604;3.872;2023-06-22T14:42:52;28.60;99.90
62424;DHT22;48463;43.604;3.872;2023-06-22T14:45:18;28.90;99.90
62424;DHT22;48463;43.604;3.872;2023-06-22T14:47:44;29.10;99.90
62424;DHT22;48463;43.604;3.872;2023-06-22T14:50:09;29.30;99.90
62424;DHT22;48463;43.604;3.872;2023-06-22T14:52:35;29.70;99.90
62424;DHT22;48463;43.604;3.872;2023-06-22T14:55:01;30.10;99.90
62424;DHT22;48463;43.604;3.872;2023-06-22T14:57:26;30.40;99.90
62424;DHT22;48463;43.604;3.872;2023-06-22T14:59:52;32.50;99.90
62424;DHT22;48463;43.604;3.872;2023-06-22T15:02:18;36.00;99.10
62424;DHT22;48463;43.604;3.872;2023-06-22T15:04:43;38.30;94.10
62424;DHT22;48463;43.604;3.872;2023-06-22T15:07:10;36.50;93.00
62424;DHT22;48463;43.604;3.872;2023-06-22T15:09:35;34.90;95.60
62424;DHT22;48463;43.604;3.872;2023-06-22T15:12:01;37.60;93.30
62424;DHT22;48463;43.604;3.872;2023-06-22T15:14:28;35.40;93.40
62424;DHT22;48463;43.604;3.872;2023-06-22T15:16:55;33.90;94.40
62424;DHT22;48463;43.604;3.872;2023-06-22T15:19:20;31.80;96.80
62424;DHT22;48463;43.604;3.872;2023-06-22T15:21:46;31.20;98.50
62424;DHT22;48463;43.604;3.872;2023-06-22T15:24:11;31.20;98.90
62424;DHT22;48463;43.604;3.872;2023-06-22T15:26:37;30.50;99.10
62424;DHT22;48463;43.604;3.872;2023-06-22T15:29:04;29.80;99.50
62424;DHT22;48463;43.604;3.872;2023-06-22T15:31:29;29.50;99.90
62424;DHT22;48463;43.604;3.872;2023-06-22T15:33:55;29.10;99.90